createdAt,value
2023-08-16T00:00:32.517Z,7.50
2023-08-16T00:03:19.198Z,7.97
2023-08-16T00:06:13.179Z,7.65
2023-08-16T00:09:00.782Z,6.63
2023-08-16T00:11:49.163Z,6.30
2023-08-16T00:14:35.962Z,6.82
2023-08-16T00:17:22.646Z,8.27
2023-08-16T00:20:11.521Z,6.75
2023-08-16T00:22:58.048Z,10.13
2023-08-16T00:25:44.661Z,8.27
2023-08-16T00:28:32.602Z,8.82
2023-08-16T00:31:20.664Z,8.23
2023-08-16T00:34:07.478Z,7.85
2023-08-16T00:36:53.863Z,9.07
2023-08-16T00:39:40.568Z,6.15
2023-08-16T00:42:27.524Z,4.95
2023-08-16T00:45:15.206Z,5.73
2023-08-16T00:48:02.105Z,6.95
2023-08-16T00:50:49.227Z,6.60
2023-08-16T00:53:38.291Z,7.50
2023-08-16T00:56:25.112Z,6.20
2023-08-16T00:59:12.412Z,12.02
2023-08-16T01:02:00.304Z,7.72
2023-08-16T01:04:48.712Z,8.57
2023-08-16T01:07:35.438Z,6.60
2023-08-16T01:10:28.004Z,9.88
2023-08-16T01:13:19.897Z,5.88
2023-08-16T01:16:09.487Z,8.05
2023-08-16T01:18:59.411Z,6.10
2023-08-16T01:21:53.400Z,7.73
2023-08-16T01:24:49.638Z,5.73
2023-08-16T01:27:37.856Z,7.10
2023-08-16T01:30:25.580Z,6.03
2023-08-16T01:33:13.298Z,6.63
2023-08-16T01:35:59.883Z,9.73
2023-08-16T01:38:47.141Z,9.73
2023-08-16T01:41:41.130Z,5.90
2023-08-16T01:44:30.127Z,7.05
2023-08-16T01:47:17.932Z,5.27
2023-08-16T01:50:05.348Z,8.83
2023-08-16T01:52:51.973Z,6.93
2023-08-16T01:55:39.149Z,5.67
2023-08-16T01:58:25.792Z,8.77
2023-08-16T02:01:14.026Z,5.85
2023-08-16T02:04:00.764Z,6.83
2023-08-16T02:06:47.367Z,7.63
2023-08-16T02:09:33.923Z,5.87
2023-08-16T02:12:20.508Z,6.17
2023-08-16T02:15:08.027Z,6.90
2023-08-16T02:17:56.001Z,8.20
2023-08-16T02:20:43.358Z,7.47
2023-08-16T02:23:30.140Z,5.60
2023-08-16T02:26:16.886Z,7.90
2023-08-16T02:29:03.872Z,6.60
2023-08-16T02:31:50.436Z,8.57
2023-08-16T02:34:38.289Z,8.00
2023-08-16T02:37:26.221Z,7.43
2023-08-16T02:40:13.857Z,7.13
2023-08-16T02:43:00.469Z,7.43
2023-08-16T02:45:47.226Z,5.57
2023-08-16T02:48:34.060Z,6.63
2023-08-16T02:51:21.992Z,6.37
2023-08-16T02:54:08.729Z,8.03
2023-08-16T02:56:55.359Z,8.00
2023-08-16T02:59:42.798Z,5.13
2023-08-16T03:02:29.908Z,6.03
2023-08-16T03:05:16.641Z,9.50
2023-08-16T03:08:04.617Z,7.73
2023-08-16T03:10:52.044Z,9.57
2023-08-16T03:13:38.978Z,10.03
2023-08-16T03:16:25.745Z,8.77
2023-08-16T03:19:12.379Z,7.80
2023-08-16T03:21:58.858Z,7.60
2023-08-16T03:24:47.945Z,6.87
2023-08-16T03:27:34.503Z,8.37
2023-08-16T03:30:21.132Z,9.57
2023-08-16T03:33:07.709Z,8.37
2023-08-16T03:35:54.619Z,8.93
2023-08-16T03:38:42.418Z,9.47
2023-08-16T03:41:30.404Z,8.03
2023-08-16T03:44:16.937Z,7.10
2023-08-16T03:47:05.078Z,8.23
2023-08-16T03:49:51.512Z,10.33
2023-08-16T03:52:38.084Z,9.30
2023-08-16T03:55:24.776Z,9.90
2023-08-16T03:58:12.841Z,8.23
2023-08-16T04:00:59.570Z,10.10
2023-08-16T04:03:46.469Z,10.67
2023-08-16T04:06:33.154Z,9.50
2023-08-16T04:09:19.730Z,7.53
2023-08-16T04:12:06.650Z,7.20
2023-08-16T04:14:54.746Z,9.10
2023-08-16T04:17:41.618Z,14.30
2023-08-16T04:20:28.467Z,29.40
2023-08-16T04:23:15.038Z,27.80
2023-08-16T04:26:02.757Z,31.03
2023-08-16T04:28:49.934Z,28.27
2023-08-16T04:31:38.500Z,16.73
2023-08-16T04:34:25.342Z,15.00
2023-08-16T04:37:12.117Z,16.47
2023-08-16T04:39:58.677Z,9.23
2023-08-16T04:42:45.733Z,17.03
2023-08-16T04:45:32.552Z,12.40
2023-08-16T04:48:20.710Z,16.80
2023-08-16T04:51:07.671Z,15.23
2023-08-16T04:53:54.482Z,14.37
2023-08-16T04:56:40.955Z,12.77
2023-08-16T04:59:27.651Z,14.17
2023-08-16T05:02:14.941Z,11.63
2023-08-16T05:05:02.753Z,11.80
2023-08-16T05:07:49.696Z,12.70
2023-08-16T05:10:36.266Z,9.77
2023-08-16T05:13:22.959Z,11.13
2023-08-16T05:16:09.604Z,9.33
2023-08-16T05:18:58.784Z,10.57
2023-08-16T05:21:46.995Z,8.70
2023-08-16T05:24:33.847Z,9.40
2023-08-16T05:27:20.419Z,9.83
2023-08-16T05:30:08.433Z,9.13
2023-08-16T05:32:56.538Z,8.50
2023-08-16T05:35:43.583Z,10.37
2023-08-16T05:38:31.543Z,9.45
2023-08-16T05:41:20.878Z,17.57
2023-08-16T05:44:07.830Z,15.43
2023-08-16T05:46:54.760Z,11.20
2023-08-16T05:49:41.900Z,10.00
2023-08-16T05:52:31.149Z,12.23
2023-08-16T05:55:22.363Z,10.68
2023-08-16T05:58:09.311Z,12.27
2023-08-16T06:00:57.159Z,9.50
2023-08-16T06:03:43.826Z,11.02
2023-08-16T06:06:30.440Z,8.98
2023-08-16T06:09:18.715Z,11.32
2023-08-16T06:12:08.854Z,8.93
2023-08-16T06:14:55.453Z,8.43
2023-08-16T06:17:42.144Z,10.88
2023-08-16T06:20:29.321Z,9.18
2023-08-16T06:23:18.643Z,10.80
2023-08-16T06:26:05.286Z,11.75
2023-08-16T06:28:53.759Z,9.43
2023-08-16T06:31:41.057Z,11.32
2023-08-16T06:34:28.318Z,10.85
2023-08-16T06:37:17.556Z,9.35
2023-08-16T06:40:06.290Z,9.85
2023-08-16T06:42:53.122Z,11.70
2023-08-16T06:45:41.248Z,11.15
2023-08-16T06:48:28.063Z,8.18
2023-08-16T06:51:14.607Z,8.48
2023-08-16T06:54:01.629Z,9.25
2023-08-16T06:56:48.515Z,8.15
2023-08-16T06:59:35.058Z,10.45
2023-08-16T07:02:23.491Z,7.57
2023-08-16T07:05:12.833Z,10.30
2023-08-16T07:07:59.762Z,8.90
2023-08-16T07:10:46.651Z,9.10
2023-08-16T07:13:33.312Z,7.63
2023-08-16T07:16:22.343Z,7.65
2023-08-16T07:19:10.741Z,7.25
2023-08-16T07:21:57.613Z,8.00
2023-08-16T07:24:44.134Z,7.45
2023-08-16T07:27:30.860Z,7.97
2023-08-16T07:30:18.742Z,7.72
2023-08-16T07:33:06.764Z,7.93
2023-08-16T07:35:55.261Z,7.35
2023-08-16T07:38:41.922Z,8.63
2023-08-16T07:41:28.698Z,9.60
2023-08-16T07:44:15.205Z,8.88
2023-08-16T07:47:02.784Z,10.80
2023-08-16T07:49:50.146Z,10.05
2023-08-16T07:52:38.238Z,10.38
2023-08-16T07:55:30.236Z,10.45
2023-08-16T07:58:17.212Z,8.98
2023-08-16T08:01:03.790Z,9.93
2023-08-16T08:03:50.583Z,9.40
2023-08-16T08:06:39.643Z,7.72
2023-08-16T08:09:28.015Z,8.27
2023-08-16T08:12:14.592Z,10.35
2023-08-16T08:15:01.125Z,8.82
2023-08-16T08:17:48.689Z,8.88
2023-08-16T08:20:35.683Z,8.68
2023-08-16T08:23:22.460Z,9.93
2023-08-16T08:26:12.045Z,7.82
2023-08-16T08:28:59.440Z,8.73
2023-08-16T08:31:46.129Z,7.50
2023-08-16T08:34:33.630Z,8.80
2023-08-16T08:37:20.708Z,7.68
2023-08-16T08:40:09.157Z,8.07
2023-08-16T08:42:59.974Z,8.73
2023-08-16T08:45:49.712Z,8.98
2023-08-16T08:48:38.721Z,10.15
2023-08-16T08:51:28.282Z,10.60
2023-08-16T08:54:14.972Z,9.02
2023-08-16T08:57:01.900Z,8.50
2023-08-16T08:59:51.528Z,7.30
2023-08-16T09:02:39.509Z,11.52
2023-08-16T09:05:26.351Z,7.97
2023-08-16T09:08:14.686Z,9.02
2023-08-16T09:11:01.887Z,8.30
2023-08-16T09:13:50.284Z,8.98
2023-08-16T09:16:38.385Z,7.22
2023-08-16T09:19:25.333Z,8.38
2023-08-16T09:22:13.113Z,8.32
2023-08-16T09:25:00.138Z,7.80
2023-08-16T09:27:47.154Z,6.38
2023-08-16T09:30:34.795Z,7.40
2023-08-16T09:33:24.315Z,7.07
2023-08-16T09:36:11.243Z,8.10
2023-08-16T09:39:02.276Z,6.70
2023-08-16T09:41:50.766Z,10.27
2023-08-16T09:44:41.224Z,7.97
2023-08-16T09:50:23.551Z,7.88
2023-08-16T09:56:20.670Z,9.77
2023-08-16T10:04:59.809Z,8.25
2023-08-16T10:07:50.275Z,7.80
2023-08-16T10:10:37.587Z,7.43
2023-08-16T10:13:25.574Z,7.05
2023-08-16T10:16:16.403Z,9.35
2023-08-16T10:19:05.883Z,9.90
2023-08-16T10:21:55.100Z,7.72
2023-08-16T10:24:50.839Z,8.82
2023-08-16T10:27:40.152Z,7.07
2023-08-16T10:30:28.194Z,5.28
2023-08-16T10:33:19.554Z,8.00
2023-08-16T10:36:08.398Z,7.93
2023-08-16T10:38:59.349Z,7.38
2023-08-16T10:41:52.506Z,6.07
2023-08-16T10:44:40.555Z,7.45
2023-08-16T10:47:31.312Z,9.50
2023-08-16T10:50:18.390Z,7.30
2023-08-16T10:53:07.595Z,7.22
2023-08-16T10:55:56.661Z,9.23
2023-08-16T10:58:50.578Z,7.25
2023-08-16T11:01:37.664Z,9.77
2023-08-16T11:04:24.525Z,7.88
2023-08-16T11:07:13.419Z,8.45
2023-08-16T11:10:02.329Z,7.93
2023-08-16T11:12:50.634Z,9.95
2023-08-16T11:15:39.342Z,10.60
2023-08-16T11:18:34.550Z,7.90
2023-08-16T11:21:22.186Z,8.18
2023-08-16T11:24:12.060Z,8.15
2023-08-16T11:26:58.887Z,8.93
2023-08-16T11:29:50.820Z,7.85
2023-08-16T11:32:41.348Z,8.70
2023-08-16T11:35:28.326Z,8.10
2023-08-16T11:38:16.614Z,7.72
2023-08-16T11:41:03.930Z,7.68
2023-08-16T11:44:01.228Z,7.20
2023-08-16T11:46:50.488Z,9.75
2023-08-16T11:49:42.418Z,6.82
2023-08-16T11:52:29.288Z,7.40
2023-08-16T11:55:17.093Z,8.23
2023-08-16T11:58:05.587Z,9.25
2023-08-16T12:00:53.151Z,7.13
2023-08-16T12:03:40.250Z,6.93
2023-08-16T12:06:28.786Z,7.03
2023-08-16T12:09:17.636Z,8.70
2023-08-16T12:12:10.057Z,7.13
2023-08-16T12:14:56.696Z,7.57
2023-08-16T12:17:43.498Z,8.32
2023-08-16T12:20:31.512Z,9.05
2023-08-16T12:23:19.664Z,7.40
2023-08-16T12:26:07.602Z,8.18
2023-08-16T12:28:56.031Z,8.15
2023-08-16T12:31:43.685Z,7.18
2023-08-16T12:34:30.528Z,9.55
2023-08-16T12:37:17.361Z,6.65
2023-08-16T12:40:06.587Z,8.23
2023-08-16T12:42:53.479Z,8.88
2023-08-16T12:45:40.415Z,7.55
2023-08-16T12:48:27.106Z,6.97
2023-08-16T12:51:17.154Z,8.95
2023-08-16T12:54:04.575Z,8.25
2023-08-16T12:59:51.608Z,8.23
2023-08-16T13:02:38.911Z,7.72
2023-08-16T13:05:33.086Z,10.60
2023-08-16T13:11:12.208Z,8.18
2023-08-16T13:14:01.222Z,10.98
2023-08-16T13:17:02.551Z,8.93
2023-08-16T13:20:02.189Z,9.43
2023-08-16T13:22:50.938Z,8.43
2023-08-16T13:28:46.118Z,11.07
2023-08-16T13:31:59.729Z,8.40
2023-08-16T13:34:57.497Z,9.07
2023-08-16T13:37:45.396Z,8.60
2023-08-16T13:40:34.372Z,11.93
2023-08-16T13:43:25.855Z,11.20
2023-08-16T13:46:13.489Z,8.13
2023-08-16T13:49:02.168Z,8.40
2023-08-16T13:51:48.968Z,7.80
2023-08-16T13:54:35.564Z,16.88
2023-08-16T13:57:23.015Z,8.65
2023-08-16T14:00:11.058Z,10.05
2023-08-16T14:02:57.683Z,7.30
2023-08-16T14:05:45.866Z,8.82
2023-08-16T14:08:32.583Z,8.68
2023-08-16T14:11:19.224Z,9.35
2023-08-16T14:14:06.026Z,8.10
2023-08-16T14:16:53.210Z,8.30
2023-08-16T14:19:40.143Z,8.88
2023-08-16T14:22:28.216Z,8.43
2023-08-16T14:25:20.999Z,11.85
2023-08-16T14:28:08.600Z,8.55
2023-08-16T14:30:55.392Z,8.30
2023-08-16T14:33:41.966Z,8.10
2023-08-16T14:36:28.688Z,10.07
2023-08-16T14:39:16.632Z,10.05
2023-08-16T14:42:08.670Z,10.32
2023-08-16T14:44:55.842Z,8.02
2023-08-16T14:47:43.079Z,10.13
2023-08-16T14:50:29.809Z,10.13
2023-08-16T14:53:16.431Z,10.15
2023-08-16T14:56:04.673Z,9.43
2023-08-16T14:58:51.448Z,7.70
2023-08-16T15:01:38.609Z,9.07
2023-08-16T15:04:27.717Z,9.07
2023-08-16T15:07:15.055Z,10.13
2023-08-16T15:10:01.975Z,8.82
2023-08-16T15:12:49.979Z,7.50
2023-08-16T15:15:37.221Z,12.35
2023-08-16T15:18:24.158Z,7.55
2023-08-16T15:21:10.888Z,8.25
2023-08-16T15:23:57.670Z,7.03
2023-08-16T15:26:44.292Z,11.35
2023-08-16T15:29:32.650Z,8.15
2023-08-16T15:32:19.253Z,12.20
2023-08-16T15:35:06.733Z,8.85
2023-08-16T15:37:53.212Z,8.25
2023-08-16T15:40:39.686Z,8.10
2023-08-16T15:43:26.671Z,8.13
2023-08-16T15:46:15.676Z,6.90
2023-08-16T15:49:02.670Z,8.18
2023-08-16T15:51:49.351Z,6.38
2023-08-16T15:54:36.002Z,5.80
2023-08-16T15:57:22.855Z,6.15
2023-08-16T16:00:11.458Z,6.72
2023-08-16T16:02:59.766Z,7.90
2023-08-16T16:05:46.713Z,7.35
2023-08-16T16:08:35.394Z,7.22
2023-08-16T16:11:23.165Z,9.73
2023-08-16T16:14:09.906Z,6.93
2023-08-16T16:17:23.592Z,7.07
2023-08-16T16:20:13.850Z,7.90
2023-08-16T16:23:01.408Z,6.28
2023-08-16T16:25:48.343Z,5.65
2023-08-16T16:28:35.193Z,8.88
2023-08-16T16:31:22.119Z,7.82
2023-08-16T16:34:08.595Z,7.63
2023-08-16T16:36:56.677Z,5.72
2023-08-16T16:39:43.435Z,6.07
2023-08-16T16:42:29.985Z,12.63
2023-08-16T16:45:16.751Z,8.80
2023-08-16T16:48:03.438Z,6.88
2023-08-16T16:50:50.110Z,7.10
2023-08-16T16:53:38.260Z,8.52
2023-08-16T16:56:25.165Z,9.48
2023-08-16T16:59:11.991Z,7.32
2023-08-16T17:01:58.542Z,5.50
2023-08-16T17:04:45.057Z,5.72
2023-08-16T17:07:32.315Z,7.00
2023-08-16T17:10:20.388Z,7.50
2023-08-16T17:13:06.828Z,8.27
2023-08-16T17:15:53.448Z,9.00
2023-08-16T17:18:40.037Z,8.52
2023-08-16T17:21:27.005Z,6.72
2023-08-16T17:24:14.413Z,6.97
2023-08-16T17:27:03.334Z,5.75
2023-08-16T17:29:50.485Z,6.97
2023-08-16T17:32:39.640Z,7.90
2023-08-16T17:35:26.471Z,10.30
2023-08-16T17:38:13.600Z,6.25
2023-08-16T17:41:00.515Z,5.97
2023-08-16T17:43:49.045Z,6.47
2023-08-16T17:46:36.484Z,6.55
2023-08-16T17:49:23.786Z,7.80
2023-08-16T17:52:11.207Z,8.88
2023-08-16T17:54:58.399Z,7.65
2023-08-16T17:57:48.413Z,8.38
2023-08-16T18:00:38.820Z,6.15
2023-08-16T18:03:25.954Z,7.03
2023-08-16T18:06:13.511Z,7.47
2023-08-16T18:09:00.186Z,5.88
2023-08-16T18:11:47.062Z,6.55
2023-08-16T18:14:34.049Z,6.75
2023-08-16T18:17:23.276Z,8.35
2023-08-16T18:20:12.185Z,6.88
2023-08-16T18:23:00.278Z,7.70
2023-08-16T18:25:46.956Z,8.48
2023-08-16T18:28:33.703Z,7.43
2023-08-16T18:31:21.046Z,7.90
2023-08-16T18:34:09.678Z,9.30
2023-08-16T18:36:56.813Z,7.90
2023-08-16T18:39:44.064Z,8.52
2023-08-16T18:42:30.962Z,8.30
2023-08-16T18:45:17.801Z,6.57
2023-08-16T18:48:05.096Z,8.52
2023-08-16T18:50:53.341Z,7.95
2023-08-16T18:53:40.661Z,7.88
2023-08-16T18:56:27.633Z,5.70
2023-08-16T18:59:16.452Z,7.97
2023-08-16T19:02:03.121Z,8.57
2023-08-16T19:04:50.355Z,7.95
2023-08-16T19:07:38.798Z,7.13
2023-08-16T19:10:25.986Z,8.90
2023-08-16T19:13:14.126Z,6.65
2023-08-16T19:16:01.190Z,8.15
2023-08-16T19:18:48.030Z,9.68
2023-08-16T19:21:36.533Z,9.40
2023-08-16T19:24:24.645Z,6.15
2023-08-16T19:27:11.840Z,12.77
2023-08-16T19:29:59.019Z,9.07
2023-08-16T19:32:45.599Z,7.75
2023-08-16T19:35:32.233Z,8.75
2023-08-16T19:38:19.154Z,8.13
2023-08-16T19:41:07.503Z,8.40
2023-08-16T19:43:58.795Z,8.45
2023-08-16T19:46:46.140Z,7.88
2023-08-16T19:49:33.016Z,7.38
2023-08-16T19:52:19.946Z,7.28
2023-08-16T19:55:07.405Z,8.82
2023-08-16T19:57:55.440Z,12.45
2023-08-16T20:00:42.428Z,6.97
2023-08-16T20:03:28.941Z,8.15
2023-08-16T20:06:15.681Z,9.50
2023-08-16T20:09:02.632Z,7.50
2023-08-16T20:11:49.463Z,6.40
2023-08-16T20:14:37.411Z,8.27
2023-08-16T20:17:25.141Z,7.03
2023-08-16T20:20:14.901Z,6.72
2023-08-16T20:23:01.709Z,8.13
2023-08-16T20:25:48.284Z,8.48
2023-08-16T20:28:34.822Z,20.65
2023-08-16T20:31:22.687Z,11.02
2023-08-16T20:34:09.435Z,10.13
2023-08-16T20:36:57.070Z,9.65
2023-08-16T20:39:44.154Z,9.05
2023-08-16T20:42:35.705Z,8.25
2023-08-16T20:45:22.910Z,7.50
2023-08-16T20:48:12.263Z,7.78
2023-08-16T20:50:59.013Z,8.43
2023-08-16T20:53:45.842Z,7.25
2023-08-16T20:56:32.650Z,10.82
2023-08-16T20:59:19.618Z,10.27
2023-08-16T21:02:06.256Z,6.97
2023-08-16T21:04:54.447Z,13.35
2023-08-16T21:07:41.108Z,7.55
2023-08-16T21:10:27.965Z,7.13
2023-08-16T21:13:16.183Z,8.10
2023-08-16T21:16:03.800Z,9.52
2023-08-16T21:18:50.439Z,8.48
2023-08-16T21:21:39.107Z,9.55
2023-08-16T21:24:25.800Z,9.18
2023-08-16T21:27:12.316Z,10.73
2023-08-16T21:29:59.281Z,9.25
2023-08-16T21:32:46.796Z,8.93
2023-08-16T21:35:34.641Z,7.32
2023-08-16T21:38:23.028Z,9.32
2023-08-16T21:41:09.675Z,7.32
2023-08-16T21:43:56.435Z,8.50
2023-08-16T21:46:44.376Z,7.50
2023-08-16T21:49:31.220Z,9.45
2023-08-16T21:52:17.796Z,9.43
2023-08-16T21:55:07.054Z,8.95
2023-08-16T21:57:53.687Z,7.97
2023-08-16T22:00:40.159Z,8.43
2023-08-16T22:03:26.892Z,8.30
2023-08-16T22:06:14.142Z,9.48
2023-08-16T22:09:01.042Z,8.35
2023-08-16T22:11:49.179Z,7.50
2023-08-16T22:14:36.007Z,8.68
2023-08-16T22:17:23.381Z,10.10
2023-08-16T22:20:13.123Z,9.50
2023-08-16T22:22:59.655Z,10.10
2023-08-16T22:25:46.296Z,11.60
2023-08-16T22:28:34.376Z,11.90
2023-08-16T22:31:20.942Z,11.00
2023-08-16T22:34:07.704Z,11.85
2023-08-16T22:36:54.381Z,7.25
2023-08-16T22:39:43.283Z,8.57
2023-08-16T22:42:32.796Z,11.98
2023-08-16T22:45:21.088Z,9.48
2023-08-16T22:48:08.457Z,7.78
2023-08-16T22:50:55.487Z,8.23
2023-08-16T22:53:42.234Z,9.30
2023-08-16T22:56:28.887Z,9.10
2023-08-16T22:59:15.603Z,9.27
2023-08-16T23:02:03.615Z,7.53
2023-08-16T23:04:50.403Z,7.60
2023-08-16T23:07:37.071Z,9.10
2023-08-16T23:10:23.921Z,9.85
2023-08-16T23:13:10.996Z,12.43
2023-08-16T23:15:57.517Z,9.52
2023-08-16T23:18:46.003Z,9.85
2023-08-16T23:21:33.037Z,9.75
2023-08-16T23:24:19.779Z,7.30
2023-08-16T23:27:06.425Z,9.70
2023-08-16T23:29:53.254Z,10.43
2023-08-16T23:32:39.990Z,10.95
2023-08-16T23:35:27.908Z,9.77
2023-08-16T23:38:14.708Z,12.30
2023-08-16T23:41:01.374Z,8.60
2023-08-16T23:43:47.874Z,8.68
2023-08-16T23:46:34.328Z,8.15
2023-08-16T23:49:21.801Z,11.18
2023-08-16T23:52:10.620Z,11.25
2023-08-16T23:54:57.315Z,10.60
2023-08-16T23:57:45.437Z,9.95
